Time;durP1;ratioP1;P1;durP2;ratioP2;P2;SDS_P1;SDS_P2;PMS_P1;PMS_P2;Temp;Humidity;BMP_temperature;BMP_pressure;BME280_temperature;BME280_humidity;BME280_pressure;Samples;Min_cycle;Max_cycle;Signal;HPM_P1;HPM_P2
2024/04/10 00:00:51;;;;;;;69.63;65.22;;;;;;;;;;6185833;23;20375;-95
2024/04/10 00:03:17;;;;;;;68.60;64.70;;;;;;;;;;6185837;23;20065;-95
2024/04/10 00:05:44;;;;;;;77.97;73.07;;;;;;;;;;6188967;23;20009;-95
2024/04/10 00:08:10;;;;;;;78.90;74.15;;;;;;;;;;6188608;23;20005;-95
2024/04/10 00:10:37;;;;;;;73.47;69.45;;;;;;;;;;6187620;23;20331;-95
2024/04/10 00:13:03;;;;;;;76.15;71.47;;;;;;;;;;6186428;23;20338;-94
2024/04/10 00:15:29;;;;;;;70.32;65.65;;;;;;;;;;6188482;23;20005;-94
2024/04/10 00:17:56;;;;;;;66.78;62.80;;;;;;;;;;6195165;23;20055;-94
2024/04/10 00:20:22;;;;;;;66.25;62.53;;;;;;;;;;6188987;23;20017;-94
2024/04/10 00:22:49;;;;;;;71.18;66.93;;;;;;;;;;6188099;23;20040;-96
2024/04/10 00:25:15;;;;;;;61.35;57.70;;;;;;;;;;6190583;23;20001;-95
2024/04/10 00:27:42;;;;;;;69.00;64.68;;;;;;;;;;6189154;23;20009;-93
2024/04/10 00:30:08;;;;;;;73.95;69.22;;;;;;;;;;6188221;23;20009;-94
2024/04/10 00:32:35;;;;;;;71.15;66.70;;;;;;;;;;6189123;23;20441;-93
2024/04/10 00:35:01;;;;;;;71.63;67.53;;;;;;;;;;6187894;23;20092;-95
2024/04/10 00:37:27;;;;;;;67.95;63.97;;;;;;;;;;6187361;23;20029;-94
2024/04/10 00:39:53;;;;;;;70.85;66.80;;;;;;;;;;6188664;23;20079;-92
2024/04/10 00:42:21;;;;;;;60.90;56.85;;;;;;;;;;6195116;23;20017;-93
2024/04/10 00:44:52;;;;;;;65.88;62.03;;;;;;;;;;6191511;23;20373;-93
2024/04/10 00:47:18;;;;;;;78.15;72.97;;;;;;;;;;6188655;23;20431;-94
2024/04/10 00:49:45;;;;;;;68.68;64.40;;;;;;;;;;6186143;23;20036;-92
2024/04/10 00:52:11;;;;;;;76.40;71.93;;;;;;;;;;6187198;23;20001;-93
2024/04/10 00:54:38;;;;;;;73.65;69.38;;;;;;;;;;6187129;23;20029;-95
2024/04/10 00:57:04;;;;;;;61.42;57.47;;;;;;;;;;6187478;23;20006;-94
2024/04/10 00:59:31;;;;;;;67.13;63.15;;;;;;;;;;6186745;23;20005;-94
2024/04/10 01:01:58;;;;;;;65.88;61.95;;;;;;;;;;6188203;23;20064;-95
2024/04/10 01:04:24;;;;;;;64.80;61.10;;;;;;;;;;6188548;23;20031;-94
2024/04/10 01:06:51;;;;;;;58.63;55.10;;;;;;;;;;6188949;23;20084;-94
2024/04/10 01:09:17;;;;;;;85.43;80.57;;;;;;;;;;6189682;23;20054;-92
2024/04/10 01:11:43;;;;;;;67.32;63.28;;;;;;;;;;6194532;23;20030;-93
2024/04/10 01:14:09;;;;;;;71.03;66.80;;;;;;;;;;6190942;23;20005;-95
2024/04/10 01:16:36;;;;;;;80.38;75.85;;;;;;;;;;6187251;23;20032;-94
2024/04/10 01:19:03;;;;;;;78.53;73.43;;;;;;;;;;6188150;23;20016;-94
2024/04/10 01:21:30;;;;;;;66.65;62.65;;;;;;;;;;6187711;23;20164;-96
2024/04/10 01:23:56;;;;;;;82.15;77.60;;;;;;;;;;6187255;23;20004;-94
2024/04/10 01:26:22;;;;;;;76.22;71.82;;;;;;;;;;6188028;23;20013;-94
2024/04/10 01:28:48;;;;;;;88.80;83.72;;;;;;;;;;6185971;23;20005;-91
2024/04/10 01:34:25;;;;;;;61.50;57.90;;;;;;;;;;6276269;22;20019;-94
2024/04/10 01:36:52;;;;;;;65.57;60.88;;;;;;;;;;6276880;22;20083;-95
2024/04/10 01:39:18;;;;;;;72.60;68.60;;;;;;;;;;6276979;22;20034;-91
2024/04/10 01:41:44;;;;;;;65.68;61.38;;;;;;;;;;6278662;22;20015;-94
2024/04/10 01:44:10;;;;;;;73.43;69.00;;;;;;;;;;6278263;22;20004;-94
2024/04/10 01:46:37;;;;;;;78.93;74.50;;;;;;;;;;6280915;22;20063;-92
2024/04/10 01:49:04;;;;;;;69.07;65.18;;;;;;;;;;6280675;22;20058;-94
2024/04/10 01:51:30;;;;;;;80.95;76.07;;;;;;;;;;6280444;22;20043;-94
2024/04/10 01:53:57;;;;;;;74.13;69.88;;;;;;;;;;6283043;22;20474;-94
2024/04/10 01:56:23;;;;;;;83.20;78.50;;;;;;;;;;6282166;22;20015;-95
2024/04/10 01:58:52;;;;;;;73.50;69.40;;;;;;;;;;6283156;22;20034;-93
2024/04/10 02:01:18;;;;;;;78.93;74.53;;;;;;;;;;6280380;22;20015;-95
2024/04/10 02:03:44;;;;;;;71.60;67.70;;;;;;;;;;6282599;22;20003;-93
2024/04/10 02:06:10;;;;;;;82.63;77.47;;;;;;;;;;6282245;22;20062;-93
2024/04/10 02:08:37;;;;;;;71.40;67.50;;;;;;;;;;6283061;22;20004;-94
2024/04/10 02:11:19;;;;;;;80.30;75.28;;;;;;;;;;6280742;22;20005;-94
2024/04/10 02:13:49;;;;;;;70.13;65.97;;;;;;;;;;6283409;22;20008;-93
2024/04/10 02:16:15;;;;;;;79.43;74.90;;;;;;;;;;6280999;22;20010;-94
2024/04/10 02:18:42;;;;;;;72.40;68.22;;;;;;;;;;6282044;22;20027;-95
2024/04/10 02:21:09;;;;;;;77.95;73.50;;;;;;;;;;6281111;22;20014;-94
2024/04/10 02:23:39;;;;;;;82.80;77.10;;;;;;;;;;6281951;22;20063;-93
2024/04/10 02:26:09;;;;;;;73.00;68.97;;;;;;;;;;6283653;22;20011;-94
2024/04/10 02:28:35;;;;;;;91.90;86.20;;;;;;;;;;6283145;22;20007;-93
2024/04/10 02:31:01;;;;;;;92.95;87.80;;;;;;;;;;6282672;22;20129;-93
2024/04/10 02:33:27;;;;;;;79.47;74.82;;;;;;;;;;6278189;22;20012;-92
2024/04/10 02:35:53;;;;;;;91.90;86.53;;;;;;;;;;6290817;22;20074;-95
2024/04/10 02:38:19;;;;;;;79.18;74.78;;;;;;;;;;6304433;22;19996;-94
2024/04/10 02:40:47;;;;;;;73.18;69.03;;;;;;;;;;6290055;22;20008;-95
2024/04/10 02:43:13;;;;;;;70.35;66.00;;;;;;;;;;6282581;22;20003;-94
2024/04/10 02:45:40;;;;;;;88.93;83.82;;;;;;;;;;6279932;22;20031;-95
2024/04/10 02:48:06;;;;;;;79.18;74.82;;;;;;;;;;6281937;22;20004;-94
2024/04/10 02:50:32;;;;;;;72.93;67.68;;;;;;;;;;6283357;22;20019;-94
2024/04/10 02:52:59;;;;;;;78.05;73.78;;;;;;;;;;6282917;22;20004;-94
2024/04/10 02:55:25;;;;;;;71.63;67.05;;;;;;;;;;6281750;22;20008;-94
2024/04/10 02:57:51;;;;;;;70.95;66.97;;;;;;;;;;6282230;22;20000;-94
2024/04/10 03:00:17;;;;;;;71.60;67.35;;;;;;;;;;6283291;22;20012;-93
2024/04/10 03:02:43;;;;;;;80.22;75.60;;;;;;;;;;6282641;22;20034;-95
2024/04/10 03:05:13;;;;;;;67.00;62.35;;;;;;;;;;6280016;22;20011;-95
2024/04/10 03:07:39;;;;;;;72.38;67.97;;;;;;;;;;6282284;22;19999;-94
2024/04/10 03:10:05;;;;;;;49.55;46.53;;;;;;;;;;6280977;22;20008;-93
2024/04/10 03:12:34;;;;;;;58.50;55.17;;;;;;;;;;6282987;22;20091;-95
2024/04/10 03:15:00;;;;;;;54.33;50.95;;;;;;;;;;6281001;22;20007;-95
2024/04/10 03:17:27;;;;;;;55.70;52.45;;;;;;;;;;6282029;22;20012;-94
2024/04/10 03:19:54;;;;;;;59.20;56.05;;;;;;;;;;6280735;22;20015;-94
2024/04/10 03:22:21;;;;;;;58.22;54.75;;;;;;;;;;6280803;22;20015;-95
2024/04/10 03:24:48;;;;;;;52.72;49.40;;;;;;;;;;6283529;22;20042;-94
2024/04/10 03:27:14;;;;;;;53.92;50.58;;;;;;;;;;6280360;22;20003;-94
2024/04/10 03:29:40;;;;;;;46.67;43.85;;;;;;;;;;6281473;22;20030;-94
2024/04/10 03:32:06;;;;;;;51.05;48.08;;;;;;;;;;6281792;22;20011;-94
2024/04/10 03:34:32;;;;;;;51.45;48.35;;;;;;;;;;6280131;22;20018;-95
2024/04/10 03:36:59;;;;;;;44.50;41.47;;;;;;;;;;6282734;22;20011;-93
2024/04/10 03:39:25;;;;;;;44.30;41.90;;;;;;;;;;6280795;22;20026;-94
2024/04/10 03:41:51;;;;;;;42.92;40.40;;;;;;;;;;6280544;22;20007;-95
2024/04/10 03:44:19;;;;;;;42.35;40.05;;;;;;;;;;6279928;22;20014;-95
2024/04/10 03:46:45;;;;;;;46.85;44.03;;;;;;;;;;6280457;22;20078;-92
2024/04/10 03:49:11;;;;;;;39.83;37.63;;;;;;;;;;6279603;22;20010;-91
2024/04/10 03:51:40;;;;;;;47.67;45.03;;;;;;;;;;6276838;22;20020;-90
2024/04/10 03:54:06;;;;;;;52.58;49.33;;;;;;;;;;6280519;22;20004;-93
2024/04/10 03:56:32;;;;;;;50.10;47.13;;;;;;;;;;6286590;22;20003;-94
2024/04/10 03:58:59;;;;;;;42.42;40.17;;;;;;;;;;6281951;22;20368;-96
2024/04/10 04:01:25;;;;;;;37.97;35.58;;;;;;;;;;6280488;22;20054;-94
2024/04/10 04:03:51;;;;;;;44.28;41.72;;;;;;;;;;6279287;22;20049;-93
2024/04/10 04:06:23;;;;;;;40.90;38.47;;;;;;;;;;6279166;22;20311;-93
2024/04/10 04:08:51;;;;;;;34.73;32.77;;;;;;;;;;6280395;22;20011;-95
2024/04/10 04:11:17;;;;;;;46.45;43.95;;;;;;;;;;6279284;22;19999;-94
2024/04/10 04:13:53;;;;;;;33.13;31.25;;;;;;;;;;6280000;22;20023;-95
2024/04/10 04:16:22;;;;;;;40.50;38.38;;;;;;;;;;6281528;22;20018;-96
2024/04/10 04:18:51;;;;;;;35.85;33.75;;;;;;;;;;6281945;22;20364;-93
2024/04/10 04:21:17;;;;;;;38.28;35.95;;;;;;;;;;6277793;22;20019;-95
2024/04/10 04:23:45;;;;;;;36.17;33.95;;;;;;;;;;6276988;22;20004;-93
2024/04/10 04:26:11;;;;;;;30.55;28.58;;;;;;;;;;6276829;22;20089;-95
2024/04/10 04:28:38;;;;;;;34.47;32.67;;;;;;;;;;6278389;22;20015;-94
2024/04/10 04:31:05;;;;;;;28.33;26.83;;;;;;;;;;6277196;22;20019;-94
2024/04/10 04:33:33;;;;;;;33.28;31.27;;;;;;;;;;6279849;22;20038;-96
2024/04/10 04:36:00;;;;;;;32.00;30.10;;;;;;;;;;6279506;22;20008;-93
2024/04/10 04:38:26;;;;;;;25.73;24.33;;;;;;;;;;6280073;22;20000;-95
2024/04/10 04:40:52;;;;;;;25.23;23.80;;;;;;;;;;6277172;22;20016;-96
2024/04/10 04:43:23;;;;;;;28.35;26.77;;;;;;;;;;6281242;22;20004;-96
2024/04/10 04:46:13;;;;;;;24.98;23.67;;;;;;;;;;6278344;22;20448;-95
2024/04/10 04:48:54;;;;;;;21.20;20.10;;;;;;;;;;6289110;22;20007;-92
2024/04/10 04:51:20;;;;;;;28.42;26.92;;;;;;;;;;6278961;22;20004;-94
2024/04/10 04:53:46;;;;;;;21.13;19.98;;;;;;;;;;6279450;22;20011;-96
2024/04/10 04:56:21;;;;;;;22.35;21.05;;;;;;;;;;6277839;22;20000;-94
2024/04/10 04:58:48;;;;;;;25.10;23.65;;;;;;;;;;6279473;22;20042;-94
2024/04/10 05:01:15;;;;;;;21.48;20.33;;;;;;;;;;6280680;22;19999;-94
2024/04/10 05:06:29;;;;;;;15.93;14.98;;;;;;;;;;6283171;22;20038;-93
2024/04/10 05:08:55;;;;;;;12.25;11.40;;;;;;;;;;6279115;22;20004;-93
2024/04/10 05:11:21;;;;;;;12.70;10.65;;;;;;;;;;6278703;22;20007;-94
2024/04/10 05:19:22;;;;;;;7.15;6.75;;;;;;;;;;6263206;22;20034;-93
2024/04/10 05:21:48;;;;;;;8.02;7.45;;;;;;;;;;6196085;23;20011;-94
2024/04/10 05:24:15;;;;;;;10.02;8.85;;;;;;;;;;6198200;23;20379;-93
2024/04/10 05:26:44;;;;;;;8.00;7.43;;;;;;;;;;6194954;23;20007;-96
2024/04/10 05:29:42;;;;;;;9.52;8.90;;;;;;;;;;6209258;23;20007;-96
2024/04/10 05:32:09;;;;;;;7.38;6.65;;;;;;;;;;6187409;23;20007;-95
2024/04/10 05:34:36;;;;;;;7.80;7.05;;;;;;;;;;6206760;22;20046;-95
2024/04/10 05:37:02;;;;;;;8.10;7.50;;;;;;;;;;6223444;22;20013;-95
2024/04/10 05:39:48;;;;;;;12.10;11.05;;;;;;;;;;6220720;22;20007;-94
2024/04/10 05:42:15;;;;;;;7.63;7.13;;;;;;;;;;6214246;23;20018;-93
2024/04/10 05:44:41;;;;;;;9.95;9.35;;;;;;;;;;6180359;23;20015;-95
2024/04/10 05:47:07;;;;;;;7.78;7.15;;;;;;;;;;6199280;23;20007;-92
2024/04/10 05:49:34;;;;;;;5.13;4.72;;;;;;;;;;6197289;23;20013;-95
2024/04/10 05:52:00;;;;;;;9.00;8.50;;;;;;;;;;6197133;23;20010;-95
2024/04/10 05:54:26;;;;;;;9.27;8.68;;;;;;;;;;6197303;23;20420;-95
2024/04/10 05:56:53;;;;;;;6.10;5.70;;;;;;;;;;6196579;23;20010;-95
2024/04/10 05:59:20;;;;;;;8.73;8.00;;;;;;;;;;6197250;23;20435;-94
2024/04/10 06:01:46;;;;;;;7.88;7.38;;;;;;;;;;6196879;23;20014;-96
2024/04/10 06:04:14;;;;;;;7.68;7.22;;;;;;;;;;6196101;23;20077;-93
2024/04/10 06:06:40;;;;;;;9.40;8.77;;;;;;;;;;6197321;23;20136;-94
2024/04/10 06:09:06;;;;;;;7.70;7.20;;;;;;;;;;6198834;23;20448;-94
2024/04/10 06:11:33;;;;;;;8.05;7.38;;;;;;;;;;6196634;23;20061;-93
2024/04/10 06:13:59;;;;;;;8.32;7.68;;;;;;;;;;6202216;23;20009;-93
2024/04/10 06:16:25;;;;;;;6.53;6.13;;;;;;;;;;6201282;23;20037;-92
2024/04/10 06:18:51;;;;;;;6.88;6.45;;;;;;;;;;6200778;23;20007;-94
2024/04/10 06:21:18;;;;;;;6.18;5.75;;;;;;;;;;6196579;23;20022;-94
2024/04/10 06:23:45;;;;;;;4.28;3.97;;;;;;;;;;6097008;23;20033;-94
2024/04/10 06:26:11;;;;;;;6.65;6.18;;;;;;;;;;6203623;23;20037;-92
2024/04/10 06:28:38;;;;;;;6.38;5.70;;;;;;;;;;6196406;23;20076;-93
2024/04/10 06:31:06;;;;;;;10.23;4.55;;;;;;;;;;6197542;23;20003;-93
2024/04/10 06:33:56;;;;;;;;;;;;;;;;;;;;;
2024/04/10 06:36:22;;;;;;;5.32;4.82;;;;;;;;;;6139430;23;20015;-92
2024/04/10 06:38:48;;;;;;;5.25;4.85;;;;;;;;;;6201061;23;20006;-94
2024/04/10 06:41:15;;;;;;;4.38;4.07;;;;;;;;;;6199652;23;20018;-94
2024/04/10 06:43:41;;;;;;;2.72;2.53;;;;;;;;;;6173001;23;20013;-95
2024/04/10 06:46:11;;;;;;;4.20;3.90;;;;;;;;;;6202041;23;20041;-95
2024/04/10 06:49:04;;;;;;;4.35;4.05;;;;;;;;;;6111421;23;20010;-96
2024/04/10 06:51:32;;;;;;;3.00;2.80;;;;;;;;;;6204517;23;20017;-93
2024/04/10 06:53:59;;;;;;;3.85;3.30;;;;;;;;;;6198695;23;20093;-95
2024/04/10 06:56:30;;;;;;;4.20;3.70;;;;;;;;;;6200143;23;20019;-95
2024/04/10 06:58:58;;;;;;;3.55;3.35;;;;;;;;;;6196667;23;20011;-95
2024/04/10 07:01:24;;;;;;;4.80;4.50;;;;;;;;;;6200176;23;20772;-95
2024/04/10 07:03:50;;;;;;;5.50;5.10;;;;;;;;;;6198911;23;20007;-95
2024/04/10 07:06:20;;;;;;;3.78;3.58;;;;;;;;;;6216484;22;20010;-94
2024/04/10 07:08:48;;;;;;;4.22;3.92;;;;;;;;;;6209791;23;20003;-95
2024/04/10 07:11:16;;;;;;;4.68;4.35;;;;;;;;;;6208219;23;20037;-94
2024/04/10 07:13:45;;;;;;;5.95;5.60;;;;;;;;;;6106959;23;20002;-95
2024/04/10 07:16:14;;;;;;;4.03;3.75;;;;;;;;;;6200658;23;20007;-95
2024/04/10 07:18:40;;;;;;;6.55;6.15;;;;;;;;;;6201485;23;20006;-94
2024/04/10 07:21:12;;;;;;;5.07;4.78;;;;;;;;;;6197559;23;20102;-95
2024/04/10 07:23:40;;;;;;;4.40;4.10;;;;;;;;;;6177281;23;20010;-94
2024/04/10 07:26:26;;;;;;;5.75;5.30;;;;;;;;;;6177113;23;20015;-95
2024/04/10 07:28:54;;;;;;;3.72;3.42;;;;;;;;;;6204061;23;20034;-94
2024/04/10 07:31:28;;;;;;;2.72;2.53;;;;;;;;;;6209391;23;20002;-95
2024/04/10 07:33:56;;;;;;;3.45;3.15;;;;;;;;;;6200125;23;20010;-96
2024/04/10 07:36:24;;;;;;;3.85;3.60;;;;;;;;;;6104590;23;20013;-95
2024/04/10 07:52:47;;;;;;;4.30;3.45;;;;;;;;;;6134091;23;20076;-95
2024/04/10 07:55:13;;;;;;;3.80;3.50;;;;;;;;;;6233832;23;20006;-95
2024/04/10 07:57:42;;;;;;;5.10;4.75;;;;;;;;;;6232783;23;20017;-96
2024/04/10 08:00:09;;;;;;;5.03;4.72;;;;;;;;;;6231379;23;20041;-95
2024/04/10 08:02:36;;;;;;;3.45;3.22;;;;;;;;;;6231697;23;20006;-95
2024/04/10 08:05:03;;;;;;;4.57;4.28;;;;;;;;;;6230192;23;20009;-96
2024/04/10 08:07:29;;;;;;;5.63;5.30;;;;;;;;;;6233691;23;20005;-95
2024/04/10 08:09:58;;;;;;;3.95;3.75;;;;;;;;;;6232960;23;20026;-96
2024/04/10 08:12:25;;;;;;;4.03;3.83;;;;;;;;;;6230476;23;20052;-96
2024/04/10 08:14:54;;;;;;;5.13;4.75;;;;;;;;;;6240793;22;20059;-96
2024/04/10 08:17:20;;;;;;;4.95;4.65;;;;;;;;;;6231311;23;20427;-96
2024/04/10 08:19:47;;;;;;;3.17;2.97;;;;;;;;;;6129745;22;20014;-96
2024/04/10 08:22:49;;;;;;;5.25;4.90;;;;;;;;;;6234561;23;20054;-93
2024/04/10 08:25:17;;;;;;;5.13;4.65;;;;;;;;;;6151155;22;20006;-96
2024/04/10 08:27:44;;;;;;;3.42;3.22;;;;;;;;;;6240954;23;20010;-94
2024/04/10 08:30:15;;;;;;;6.95;6.40;;;;;;;;;;6238415;23;20006;-96
2024/04/10 08:32:41;;;;;;;5.07;4.53;;;;;;;;;;6230213;23;20006;-96
2024/04/10 08:35:10;;;;;;;4.20;3.80;;;;;;;;;;6243922;22;20001;-96
2024/04/10 08:37:36;;;;;;;4.05;3.85;;;;;;;;;;6251950;22;20001;-93
2024/04/10 08:40:02;;;;;;;3.70;3.40;;;;;;;;;;6241288;23;20010;-93
2024/04/10 08:42:28;;;;;;;5.70;5.40;;;;;;;;;;6232546;23;20007;-95
2024/04/10 08:44:55;;;;;;;7.40;6.95;;;;;;;;;;6225492;23;20089;-94
2024/04/10 08:47:23;;;;;;;4.22;3.92;;;;;;;;;;6229423;23;20058;-94
2024/04/10 08:49:50;;;;;;;8.15;7.65;;;;;;;;;;6227364;23;20014;-96
2024/04/10 08:52:17;;;;;;;6.78;6.18;;;;;;;;;;6248036;23;20038;-94
2024/04/10 08:54:45;;;;;;;6.38;6.03;;;;;;;;;;6250391;23;20005;-95
2024/04/10 08:57:11;;;;;;;7.18;6.72;;;;;;;;;;6248144;23;19996;-93
2024/04/10 08:59:41;;;;;;;5.53;5.18;;;;;;;;;;6250378;23;20004;-96
2024/04/10 09:02:08;;;;;;;8.15;7.72;;;;;;;;;;6259331;22;20000;-95
2024/04/10 09:04:42;;;;;;;7.95;7.47;;;;;;;;;;6251714;23;20087;-93
2024/04/10 09:07:08;;;;;;;7.75;7.30;;;;;;;;;;6250939;23;20011;-94
2024/04/10 09:09:44;;;;;;;5.72;5.22;;;;;;;;;;6258085;23;20083;-95
2024/04/10 09:12:31;;;;;;;7.65;7.22;;;;;;;;;;6254025;23;20001;-95
2024/04/10 09:15:11;;;;;;;4.85;4.55;;;;;;;;;;6252415;23;20062;-94
2024/04/10 09:17:37;;;;;;;4.70;4.35;;;;;;;;;;6249509;23;20027;-93
2024/04/10 09:20:11;;;;;;;6.93;6.53;;;;;;;;;;6253819;23;20008;-92
2024/04/10 09:22:37;;;;;;;;;;;;;;;;;;6258208;23;20008;-95
2024/04/10 09:25:30;;;;;;;4.00;3.80;;;;;;;;;;6285447;22;19899;-94
2024/04/10 09:27:58;;;;;;;3.00;2.80;;;;;;;;;;6252556;23;20008;-95
2024/04/10 09:30:24;;;;;;;3.80;3.40;;;;;;;;;;6249688;23;20015;-96
2024/04/10 09:32:51;;;;;;;5.25;4.95;;;;;;;;;;6249370;23;20293;-94
2024/04/10 09:35:20;;;;;;;10.65;10.05;;;;;;;;;;6250506;23;20007;-96
2024/04/10 09:37:46;;;;;;;10.15;9.52;;;;;;;;;;6253097;23;20011;-95
2024/04/10 09:40:13;;;;;;;7.40;7.00;;;;;;;;;;6227977;23;20472;-96
2024/04/10 09:42:40;;;;;;;6.30;5.82;;;;;;;;;;6252694;23;20007;-93
2024/04/10 09:45:15;;;;;;;8.40;7.90;;;;;;;;;;6254456;23;20004;-95
2024/04/10 09:47:43;;;;;;;6.18;5.00;;;;;;;;;;6254822;23;20012;-95
2024/04/10 09:50:12;;;;;;;7.63;7.20;;;;;;;;;;6250066;23;20445;-95
2024/04/10 09:52:40;;;;;;;8.73;8.23;;;;;;;;;;6251991;23;20126;-93
2024/04/10 09:55:08;;;;;;;8.35;7.78;;;;;;;;;;6251302;23;20015;-95
2024/04/10 09:57:56;;;;;;;5.47;5.07;;;;;;;;;;6252658;23;20083;-95
2024/04/10 10:00:22;;;;;;;6.03;5.63;;;;;;;;;;6250977;22;20012;-94
2024/04/10 10:02:48;;;;;;;6.85;6.45;;;;;;;;;;6248831;23;20004;-94
2024/04/10 10:05:21;;;;;;;9.35;8.48;;;;;;;;;;6249158;23;20001;-96
2024/04/10 10:07:48;;;;;;;4.30;4.00;;;;;;;;;;6249137;23;20004;-94
2024/04/10 10:10:16;;;;;;;13.82;9.30;;;;;;;;;;6241934;23;20095;-95
2024/04/10 10:12:44;;;;;;;8.70;8.10;;;;;;;;;;6249519;23;20054;-94
2024/04/10 10:15:11;;;;;;;9.88;9.20;;;;;;;;;;6263853;23;20015;-93
2024/04/10 10:17:43;;;;;;;16.48;15.57;;;;;;;;;;6252057;23;20004;-94
2024/04/10 10:20:32;;;;;;;8.07;7.47;;;;;;;;;;6247924;23;20012;-95
2024/04/10 10:23:02;;;;;;;11.68;10.95;;;;;;;;;;6249818;23;20239;-96
2024/04/10 10:25:29;;;;;;;13.00;12.25;;;;;;;;;;6248348;23;20035;-96
2024/04/10 10:28:07;;;;;;;14.30;13.52;;;;;;;;;;6249311;23;20008;-95
2024/04/10 10:30:36;;;;;;;15.02;14.02;;;;;;;;;;6252717;23;20001;-94
2024/04/10 10:33:04;;;;;;;16.10;15.20;;;;;;;;;;6254015;23;20012;-96
2024/04/10 10:35:30;;;;;;;14.40;13.43;;;;;;;;;;6254498;23;20004;-95
2024/04/10 10:37:57;;;;;;;16.00;14.88;;;;;;;;;;6249913;23;20063;-96
2024/04/10 10:40:24;;;;;;;16.58;15.65;;;;;;;;;;6253462;23;20020;-94
2024/04/10 10:43:03;;;;;;;20.50;19.13;;;;;;;;;;6253543;23;20023;-95
2024/04/10 10:45:36;;;;;;;20.85;19.65;;;;;;;;;;6255639;23;20018;-95
2024/04/10 10:48:03;;;;;;;;;;;;;;;;;;6257205;22;20000;-95
2024/04/10 10:50:29;;;;;;;15.48;14.63;;;;;;;;;;6280368;22;19899;-95
2024/04/10 10:52:57;;;;;;;18.67;17.58;;;;;;;;;;6254482;23;20054;-96
2024/04/10 10:55:24;;;;;;;29.58;27.95;;;;;;;;;;6254041;23;20058;-93
2024/04/10 10:58:00;;;;;;;27.13;25.58;;;;;;;;;;6253200;23;20000;-96
2024/04/10 11:00:29;;;;;;;23.15;21.88;;;;;;;;;;6254886;23;20019;-96
2024/04/10 11:02:56;;;;;;;27.92;26.42;;;;;;;;;;6246338;23;20004;-94
2024/04/10 11:05:23;;;;;;;26.90;25.30;;;;;;;;;;6250026;23;20099;-95
2024/04/10 11:07:57;;;;;;;27.67;26.20;;;;;;;;;;6254552;22;20004;-95
2024/04/10 11:10:24;;;;;;;18.85;17.55;;;;;;;;;;6256628;23;20008;-94
2024/04/10 11:12:59;;;;;;;16.00;15.05;;;;;;;;;;6257253;23;20378;-96
2024/04/10 11:15:26;;;;;;;30.67;29.05;;;;;;;;;;6258301;23;20008;-96
2024/04/10 11:18:05;;;;;;;35.70;33.75;;;;;;;;;;6254946;23;20326;-95
2024/04/10 11:20:31;;;;;;;20.08;18.83;;;;;;;;;;6250768;23;20016;-94
2024/04/10 11:23:09;;;;;;;32.92;31.02;;;;;;;;;;6251379;23;20099;-96
2024/04/10 11:25:35;;;;;;;22.90;21.63;;;;;;;;;;6240498;23;20012;-96
2024/04/10 11:28:02;;;;;;;26.48;24.85;;;;;;;;;;6234069;23;20009;-95
2024/04/10 11:30:29;;;;;;;22.55;21.17;;;;;;;;;;6259512;23;20011;-96
2024/04/10 11:32:56;;;;;;;29.40;27.77;;;;;;;;;;6255591;23;20039;-94
2024/04/10 11:35:23;;;;;;;32.80;30.95;;;;;;;;;;6267989;22;20018;-95
2024/04/10 11:37:52;;;;;;;38.28;36.22;;;;;;;;;;6272416;22;20020;-94
2024/04/10 11:40:19;;;;;;;34.25;32.33;;;;;;;;;;6261074;23;20015;-94
2024/04/10 11:42:46;;;;;;;45.55;43.15;;;;;;;;;;6250992;23;20011;-95
2024/04/10 11:45:12;;;;;;;37.13;35.10;;;;;;;;;;6247753;23;20008;-95
2024/04/10 11:47:40;;;;;;;29.55;27.92;;;;;;;;;;6248054;23;20000;-95
2024/04/10 11:50:07;;;;;;;34.83;32.97;;;;;;;;;;6247906;23;20323;-95
2024/04/10 11:52:36;;;;;;;36.78;34.78;;;;;;;;;;6248228;23;20016;-93
2024/04/10 11:55:04;;;;;;;36.72;34.65;;;;;;;;;;6247503;23;20008;-95
2024/04/10 11:57:31;;;;;;;35.10;33.05;;;;;;;;;;6250834;22;20011;-94
2024/04/10 11:59:58;;;;;;;66.22;62.75;;;;;;;;;;6248363;23;20008;-96
2024/04/10 12:02:24;;;;;;;44.58;42.15;;;;;;;;;;6249673;23;20008;-93
2024/04/10 12:04:50;;;;;;;74.78;70.93;;;;;;;;;;6257613;23;20000;-93
2024/04/10 12:07:17;;;;;;;52.38;49.42;;;;;;;;;;6250459;23;20059;-96
2024/04/10 12:09:43;;;;;;;46.47;44.00;;;;;;;;;;6259182;23;20058;-93
2024/04/10 12:12:10;;;;;;;68.05;64.38;;;;;;;;;;6263025;23;20008;-95
2024/04/10 12:14:37;;;;;;;40.30;38.10;;;;;;;;;;6251681;22;20069;-94
2024/04/10 12:17:03;;;;;;;56.38;53.38;;;;;;;;;;6251519;23;20004;-94
2024/04/10 12:19:39;;;;;;;48.75;46.13;;;;;;;;;;6252432;23;20031;-96
2024/04/10 12:22:06;;;;;;;40.88;38.65;;;;;;;;;;6259899;22;20001;-96
2024/04/10 12:24:36;;;;;;;48.80;46.22;;;;;;;;;;6253846;23;20008;-95
2024/04/10 12:27:02;;;;;;;48.38;45.65;;;;;;;;;;6251336;23;20012;-95
2024/04/10 12:29:31;;;;;;;57.58;54.50;;;;;;;;;;6256044;23;20023;-95
2024/04/10 12:32:07;;;;;;;47.90;45.33;;;;;;;;;;6254105;23;20039;-96
2024/04/10 12:34:35;;;;;;;49.00;46.38;;;;;;;;;;6234905;22;20024;-93
2024/04/10 12:39:55;;;;;;;39.60;37.38;;;;;;;;;;6198577;23;20024;-96
2024/04/10 12:48:05;;;;;;;40.33;38.03;;;;;;;;;;6263648;22;20020;-95
2024/04/10 12:50:32;;;;;;;31.52;29.73;;;;;;;;;;6225865;23;20056;-95
2024/04/10 12:52:59;;;;;;;47.67;44.97;;;;;;;;;;6232066;23;20055;-95
2024/04/10 12:55:25;;;;;;;36.03;33.97;;;;;;;;;;6230206;23;20028;-95
2024/04/10 12:57:57;;;;;;;41.60;39.25;;;;;;;;;;6238350;23;20004;-95
2024/04/10 13:00:26;;;;;;;34.53;32.57;;;;;;;;;;6234455;23;20016;-96
2024/04/10 13:02:54;;;;;;;34.75;32.70;;;;;;;;;;6230732;23;20024;-95
2024/04/10 13:05:23;;;;;;;39.08;36.90;;;;;;;;;;6229551;23;20142;-96
2024/04/10 13:13:38;;;;;;;40.83;38.50;;;;;;;;;;6159148;22;20035;-93
2024/04/10 13:16:05;;;;;;;41.72;39.50;;;;;;;;;;6268805;22;20051;-96
2024/04/10 13:18:37;;;;;;;73.47;69.38;;;;;;;;;;6267768;22;20419;-95
2024/04/10 13:21:03;;;;;;;71.47;67.50;;;;;;;;;;6266916;22;20443;-94
2024/04/10 13:23:47;;;;;;;53.95;50.83;;;;;;;;;;6267459;22;20005;-96
2024/04/10 13:26:35;;;;;;;57.50;54.30;;;;;;;;;;6272165;22;20005;-96
2024/04/10 13:29:04;;;;;;;62.00;58.60;;;;;;;;;;6266157;22;20021;-94
2024/04/10 13:31:40;;;;;;;67.70;64.05;;;;;;;;;;6270209;22;20029;-95
2024/04/10 13:34:07;;;;;;;62.67;59.17;;;;;;;;;;6166864;23;20051;-94
2024/04/10 13:37:08;;;;;;;42.20;39.53;;;;;;;;;;6268532;22;20006;-94
2024/04/10 13:39:57;;;;;;;44.47;42.03;;;;;;;;;;6166958;22;20477;-93
2024/04/10 13:42:27;;;;;;;41.97;39.65;;;;;;;;;;6265201;22;20002;-95
2024/04/10 13:44:53;;;;;;;41.97;39.47;;;;;;;;;;6261556;22;20083;-93
2024/04/10 13:47:20;;;;;;;58.30;55.03;;;;;;;;;;6262328;22;20393;-95
2024/04/10 13:49:58;;;;;;;60.25;56.95;;;;;;;;;;6265564;22;20008;-93
2024/04/10 14:01:03;;;;;;;27.85;26.20;;;;;;;;;;6061404;22;20014;-95
2024/04/10 14:18:00;;;;;;;40.10;37.80;;;;;;;;;;6092925;22;20030;-95
2024/04/10 14:26:14;;;;;;;39.58;37.22;;;;;;;;;;6081303;23;20023;-95
2024/04/10 14:28:41;;;;;;;40.67;38.28;;;;;;;;;;6135326;23;20010;-95
2024/04/10 14:31:11;;;;;;;75.75;71.65;;;;;;;;;;6184082;23;20058;-96
2024/04/10 14:33:42;;;;;;;65.28;61.60;;;;;;;;;;6189093;23;19995;-95
2024/04/10 14:36:15;;;;;;;39.63;37.30;;;;;;;;;;6186398;23;20007;-94
2024/04/10 14:38:48;;;;;;;;;;;;;;;;;;6121084;22;20018;-94
2024/04/10 14:41:15;;;;;;;36.13;34.00;;;;;;;;;;6133124;22;19916;-94
2024/04/10 14:46:56;;;;;;;33.45;31.25;;;;;;;;;;6198917;23;20043;-96
2024/04/10 14:49:51;;;;;;;30.95;29.15;;;;;;;;;;6177772;23;20012;-96
2024/04/10 14:52:48;;;;;;;34.75;32.70;;;;;;;;;;6165790;23;20032;-96
2024/04/10 14:55:16;;;;;;;31.55;29.65;;;;;;;;;;6196428;23;20013;-95
2024/04/10 14:57:44;;;;;;;53.22;50.05;;;;;;;;;;6196996;23;20001;-94
2024/04/10 15:00:11;;;;;;;46.90;43.97;;;;;;;;;;6172742;23;20505;-95
2024/04/10 15:02:38;;;;;;;45.05;42.28;;;;;;;;;;6202526;23;20089;-94
2024/04/10 15:05:06;;;;;;;25.83;24.33;;;;;;;;;;6182644;23;20411;-94
2024/04/10 15:07:33;;;;;;;36.88;34.78;;;;;;;;;;6197204;23;20017;-96
2024/04/10 15:10:18;;;;;;;49.88;46.90;;;;;;;;;;6197493;23;20544;-95
2024/04/10 15:12:48;;;;;;;35.67;33.55;;;;;;;;;;6201953;23;20009;-96
2024/04/10 15:15:16;;;;;;;39.17;36.90;;;;;;;;;;6198801;23;20001;-96
2024/04/10 15:17:45;;;;;;;46.03;43.53;;;;;;;;;;6178136;23;20019;-96
2024/04/10 15:20:12;;;;;;;40.25;38.03;;;;;;;;;;6178176;23;20017;-95
2024/04/10 15:22:41;;;;;;;37.75;35.63;;;;;;;;;;6176483;23;20012;-94
2024/04/10 15:25:08;;;;;;;36.95;34.83;;;;;;;;;;6175779;23;20012;-94
2024/04/10 15:28:12;;;;;;;44.38;41.60;;;;;;;;;;6180473;23;20009;-95
2024/04/10 15:30:30;;;;;;;39.78;37.60;;;;;;;;;;6199260;23;20020;-94
2024/04/10 15:36:00;;;;;;;38.45;35.78;;;;;;;;;;6139556;22;20031;-96
2024/04/10 15:44:13;;;;;;;39.92;37.40;;;;;;;;;;6282337;22;20421;-94
2024/04/10 15:46:53;;;;;;;;;;;;;;;;;;;;;
2024/04/10 15:52:14;;;;;;;23.38;21.95;;;;;;;;;;6111336;23;20021;-95
2024/04/10 15:54:46;;;;;;;38.13;35.28;;;;;;;;;;6159874;23;20010;-96
2024/04/10 15:57:36;;;;;;;47.35;44.63;;;;;;;;;;6112225;23;20040;-96
2024/04/10 16:00:16;;;;;;;43.63;40.22;;;;;;;;;;6214506;23;20018;-96
2024/04/10 16:02:53;;;;;;;38.88;36.63;;;;;;;;;;6107070;23;20125;-94